Meteorología y climatología de Navarra
Datos de la estación - Meteo Navarra

Estación de Bardenas (El Yugo) GN

Altitud 486 m.


Datos desde el 02/08/2020 hasta el 03/08/2020 en horario solar
Los datos son PROVISIONALES

Anterior Página 1 de 1 Siguiente Descargar: Formato para Excel 2000 o superior   Formato csv   Formato para OpenOffice Calc
Fecha Temperatura Humedad relativa Radiación global Insolación Precipitación Vel. viento 10 m Vel. viento 10 m Dir. viento 10 m
ºC % W/m² s l/m² m/s km/h º
02/08/2020 0:00 19.1 77 0.0 0 0.0 6.8 24.4 315
02/08/2020 0:10 19.0 78 0.0 0 0.0 5.0 18.0 314
02/08/2020 0:20 18.9 78 0.0 0 0.0 5.4 19.5 318
02/08/2020 0:30 18.8 78 0.0 0 0.0 5.9 21.4 315
02/08/2020 0:40 18.7 78 0.0 0 0.0 5.9 21.1 314
02/08/2020 0:50 18.6 79 0.0 0 0.0 5.9 21.2 320
02/08/2020 1:00 18.6 79 0.0 0 0.0 6.2 22.4 328
02/08/2020 1:10 18.6 78 0.0 0 0.0 5.4 19.5 327
02/08/2020 1:20 18.6 78 0.0 0 0.0 5.8 20.8 315
02/08/2020 1:30 18.6 78 0.0 0 0.0 6.4 23.1 320
02/08/2020 1:40 18.5 78 0.0 0 0.0 5.3 19.2 321
02/08/2020 1:50 18.4 79 0.0 0 0.0 5.6 20.1 318
02/08/2020 2:00 18.4 79 0.0 0 0.0 6.0 21.6 323
02/08/2020 2:10 18.3 78 0.0 0 0.0 6.5 23.3 327
02/08/2020 2:20 18.3 77 0.0 0 0.0 6.2 22.3 332
02/08/2020 2:30 18.2 78 0.0 0 0.0 5.1 18.3 332
02/08/2020 2:40 18.4 78 0.0 0 0.0 5.7 20.5 324
02/08/2020 2:50 18.3 78 0.0 0 0.0 5.7 20.6 320
02/08/2020 3:00 18.3 78 0.0 0 0.0 6.2 22.3 314
02/08/2020 3:10 18.2 78 0.0 0 0.0 4.8 17.1 320
02/08/2020 3:20 17.8 79 0.0 0 0.0 5.4 19.6 323
02/08/2020 3:30 17.6 80 0.0 0 0.0 5.3 18.9 318
02/08/2020 3:40 17.4 80 0.0 0 0.0 4.7 16.9 314
02/08/2020 3:50 17.4 80 0.0 0 0.0 5.1 18.5 307
02/08/2020 4:00 17.4 80 0.0 0 0.0 5.6 20.0 309
02/08/2020 4:10 17.4 80 0.0 0 0.0 6.2 22.4 314
02/08/2020 4:20 17.4 80 0.0 0 0.0 7.5 27.0 313
02/08/2020 4:30 17.3 79 0.0 0 0.0 6.6 23.8 312
02/08/2020 4:40 17.3 79 0.0 0 0.0 6.7 23.9 315
02/08/2020 4:50 17.2 80 0.0 0 0.0 6.3 22.6 316
02/08/2020 5:00 17.2 80 0.0 0 0.0 5.9 21.2 310
02/08/2020 5:10 17.1 81 0.0 0 0.0 6.0 21.5 312
02/08/2020 5:20 17.1 81 12.8 0 0.0 6.0 21.7 308
02/08/2020 5:30 17.2 80 33.4 412 0.0 6.1 22.1 309
02/08/2020 5:40 17.2 80 54.6 600 0.0 6.4 22.9 312
02/08/2020 5:50 17.3 79 78.5 600 0.0 5.9 21.3 312
02/08/2020 6:00 17.4 78 105.3 600 0.0 6.1 21.8 308
02/08/2020 6:10 17.7 77 133.6 600 0.0 6.7 24.0 312
02/08/2020 6:20 18.1 76 162.8 600 0.0 6.9 24.8 313
02/08/2020 6:30 18.4 75 193.4 600 0.0 6.1 22.0 319
02/08/2020 6:40 18.7 73 223.9 600 0.0 6.5 23.4 318
02/08/2020 6:50 18.8 72 257.6 600 0.0 7.4 26.8 311
02/08/2020 7:00 19.1 72 290.8 600 0.0 7.0 25.1 315
02/08/2020 7:10 19.3 71 324.9 600 0.0 6.7 24.2 316
02/08/2020 7:20 19.6 70 359.7 600 0.0 7.2 25.8 319
02/08/2020 7:30 19.7 70 394.5 600 0.0 8.3 29.7 317
02/08/2020 7:40 19.9 69 427.3 600 0.0 7.2 26.1 316
02/08/2020 7:50 20.2 67 458.5 600 0.0 8.1 29.3 324
02/08/2020 8:00 20.5 67 486.9 596 0.0 8.0 28.6 322
02/08/2020 8:10 21.1 65 522.9 600 0.0 6.1 21.9 323
02/08/2020 8:20 21.3 62 551.9 600 0.0 7.0 25.1 320
02/08/2020 8:30 21.3 62 580.8 600 0.0 8.2 29.3 318
02/08/2020 8:40 21.3 62 605.8 600 0.0 7.6 27.3 321
02/08/2020 8:50 21.8 60 635.1 600 0.0 7.8 28.0 330
02/08/2020 9:00 22.2 59 655.7 588 0.0 7.7 27.8 333
02/08/2020 9:10 22.1 59 685.0 600 0.0 7.2 26.0 332
02/08/2020 9:20 22.5 57 719.8 600 0.0 7.8 27.9 319
02/08/2020 9:30 22.6 56 767.3 600 0.0 7.7 27.8 330
02/08/2020 9:40 22.6 57 670.3 574 0.0 7.1 25.4 325
02/08/2020 9:50 22.8 56 752.0 582 0.0 7.2 26.0 326
02/08/2020 10:00 23.0 54 829.0 600 0.0 7.8 27.9 326
02/08/2020 10:10 23.0 53 802.0 600 0.0 8.2 29.7 339
02/08/2020 10:20 22.6 54 688.9 534 0.0 9.0 32.4 342
02/08/2020 10:30 22.9 52 879.0 586 0.0 9.3 33.6 346
02/08/2020 10:40 23.8 49 946.0 600 0.0 8.5 30.5 346
02/08/2020 10:50 24.2 49 848.0 538 0.0 8.3 29.8 347
02/08/2020 11:00 24.1 49 944.0 600 0.0 7.8 27.9 339
02/08/2020 11:10 24.3 48 935.0 566 0.0 7.5 27.0 336
02/08/2020 11:20 24.3 47 960.0 566 0.0 8.4 30.1 336
02/08/2020 11:30 24.7 46 1013.0 574 0.0 8.3 29.9 336
02/08/2020 11:40 24.6 47 1025.0 600 0.0 8.8 31.8 347
02/08/2020 11:50 25.0 46 1026.0 590 0.0 7.6 27.4 332
02/08/2020 12:00 25.3 45 987.0 600 0.0 7.1 25.5 323
02/08/2020 12:10 25.5 44 1008.0 582 0.0 7.7 27.8 339
02/08/2020 12:20 25.2 46 1010.0 578 0.0 7.0 25.3 332
02/08/2020 12:30 25.6 44 996.0 560 0.0 7.5 26.9 334
02/08/2020 12:40 25.3 45 1027.0 600 0.0 7.4 26.6 341
02/08/2020 12:50 25.9 43 1074.0 590 0.0 6.7 23.9 328
02/08/2020 13:00 25.5 45 958.0 524 0.0 8.1 29.2 348
02/08/2020 13:10 25.4 45 1017.0 590 0.0 8.8 31.5 352
02/08/2020 13:20 25.4 44 761.0 436 0.0 7.8 28.2 346
02/08/2020 13:30 25.0 45 842.0 600 0.0 7.5 27.0 340
02/08/2020 13:40 25.4 44 961.0 600 0.0 7.9 28.5 344
02/08/2020 13:50 25.5 44 780.2 600 0.0 8.0 28.9 338
02/08/2020 14:00 25.0 45 740.6 600 0.0 7.7 27.7 348
02/08/2020 14:10 24.8 46 430.1 76 0.0 8.0 28.6 342
02/08/2020 14:20 23.8 48 503.7 278 0.0 8.3 29.7 340
02/08/2020 14:30 23.6 48 423.8 182 0.0 8.3 30.0 340
02/08/2020 14:40 23.2 49 418.1 76 0.0 8.2 29.7 340
02/08/2020 14:50 23.3 51 419.5 440 0.0 8.1 29.1 340
02/08/2020 15:00 23.0 52 423.4 522 0.0 10.9 39.3 350
02/08/2020 15:10 22.6 52 369.4 140 0.0 9.0 32.5 351
02/08/2020 15:20 22.7 52 286.1 0 0.0 7.5 27.0 352
02/08/2020 15:30 22.5 52 265.9 0 0.0 9.0 32.3 350
02/08/2020 15:40 22.2 53 295.6 0 0.0 9.3 33.6 349
02/08/2020 15:50 21.9 54 266.7 0 0.0 9.4 33.7 352
02/08/2020 16:00 21.6 53 216.5 0 0.0 9.1 32.7 348
02/08/2020 16:10 21.7 54 197.4 0 0.0 9.9 35.6 357
02/08/2020 16:20 21.3 55 166.8 0 0.0 9.1 32.7 344
02/08/2020 16:30 21.2 54 168.4 0 0.0 10.4 37.4 347
02/08/2020 16:40 21.0 54 172.8 0 0.0 9.8 35.4 354
02/08/2020 16:50 21.0 54 147.6 0 0.0 8.5 30.6 350
02/08/2020 17:00 20.8 56 125.0 0 0.0 7.9 28.5 344
02/08/2020 17:10 20.5 58 97.8 0 0.0 7.2 25.8 340
02/08/2020 17:20 20.3 59 87.9 0 0.0 7.3 26.4 338
02/08/2020 17:30 20.2 59 95.8 0 0.0 7.6 27.2 343
02/08/2020 17:40 20.3 59 105.9 0 0.0 7.6 27.3 342
02/08/2020 17:50 20.3 58 112.1 0 0.0 7.8 28.2 340
02/08/2020 18:00 20.5 56 178.4 284 0.0 8.2 29.4 344
02/08/2020 18:10 20.9 55 171.3 600 0.0 8.8 31.8 343
02/08/2020 18:20 20.6 57 123.2 488 0.0 9.4 33.9 351
02/08/2020 18:30 20.2 57 84.1 194 0.0 10.5 37.8 353
02/08/2020 18:40 19.6 59 46.0 0 0.0 9.1 32.8 353
02/08/2020 18:50 19.2 61 29.7 0 0.0 8.8 31.7 353
02/08/2020 19:00 18.8 63 20.7 0 0.0 7.8 27.9 354
02/08/2020 19:10 18.5 63 5.2 0 0.0 8.3 30.0 349
02/08/2020 19:20 18.3 64 0.0 0 0.0 8.1 29.2 347
02/08/2020 19:30 18.1 65 0.0 0 0.0 7.2 26.0 345
02/08/2020 19:40 18.0 65 0.0 0 0.0 7.3 26.3 342
02/08/2020 19:50 17.9 65 0.0 0 0.0 7.3 26.4 340
02/08/2020 20:00 17.8 66 0.0 0 0.0 6.7 24.2 345
02/08/2020 20:10 17.8 66 0.0 0 0.0 7.7 27.8 341
02/08/2020 20:20 17.8 67 0.0 0 0.0 7.6 27.2 343
02/08/2020 20:30 17.7 68 0.0 0 0.0 7.6 27.5 343
02/08/2020 20:40 17.5 70 0.0 0 0.0 7.0 25.1 341
02/08/2020 20:50 17.4 71 0.0 0 0.0 6.7 24.2 345
02/08/2020 21:00 17.3 70 0.0 0 0.0 7.6 27.3 347
02/08/2020 21:10 17.3 69 0.0 0 0.0 8.1 29.3 346
02/08/2020 21:20 17.3 69 0.0 0 0.0 9.2 33.3 349
02/08/2020 21:30 17.2 69 0.0 0 0.0 8.1 29.1 347
02/08/2020 21:40 17.0 70 0.0 0 0.0 6.8 24.5 343
02/08/2020 21:50 16.9 70 0.0 0 0.0 6.8 24.6 342
02/08/2020 22:00 16.9 69 0.0 0 0.0 7.2 25.9 344
02/08/2020 22:10 16.9 69 0.0 0 0.0 7.4 26.5 341
02/08/2020 22:20 16.9 69 0.0 0 0.0 6.5 23.5 340
02/08/2020 22:30 16.9 69 0.0 0 0.0 6.4 23.1 333
02/08/2020 22:40 16.9 70 0.0 0 0.0 6.9 24.9 332
02/08/2020 22:50 16.8 70 0.0 0 0.0 5.5 19.9 329
02/08/2020 23:00 16.7 71 0.0 0 0.0 5.8 20.9 327
02/08/2020 23:10 16.7 71 0.0 0 0.0 6.4 23.0 325
02/08/2020 23:20 16.7 71 0.0 0 0.0 5.9 21.2 320
02/08/2020 23:30 16.6 71 0.0 0 0.0 5.2 18.7 319
02/08/2020 23:40 16.6 72 0.0 0 0.0 4.8 17.1 314
02/08/2020 23:50 16.5 72 0.0 0 0.0 5.1 18.3 311
Anterior Página 1 de 1 Siguiente

NOTA: Tipo de datos según el color:
   - Valores diarios o 10 minutos correctos
   - Valores diarios calculados a partir de un número de datos 10 minutos menor que 144 y mayor que 120, o de un número de datos semihorarios menor que 48 y mayor que 40 (caso de las estaciones de INTIA y del Ministerio)
   - Valores diez minutos estimados


Contacto        Enlaces        Aviso legal